Terminal Aerodrome Forecast
Issued by NWS

Home | Current Version | Previous Version | Text Only | Print | Product List | Glossary On
Versions: 1 2 3 4 5 6 7 8 9 10 11 12 13
527
FTUS45 KABQ 220540
TAFROW
TAF
KROW 220540Z 2206/2306 09005KT P6SM SKC
     FM221000 VRB03KT P6SM BKN030
     FM221300 13006KT P6SM FEW150
     FM230200 16006KT P6SM BKN200=

USA.gov is the U.S. government's official web portal to all federal, state and local government web resources and services.